createdAt,value
2022-09-24T00:04:20.133Z,90.58
2022-09-24T00:09:19.261Z,90.44
2022-09-24T00:14:19.216Z,90.48
2022-09-24T00:19:19.150Z,90.99
2022-09-24T00:24:19.110Z,92.02
2022-09-24T00:29:19.026Z,92.16
2022-09-24T00:34:18.920Z,92.27
2022-09-24T00:39:18.868Z,92.27
2022-09-24T00:44:18.819Z,92.27
2022-09-24T00:49:18.743Z,92.06
2022-09-24T00:54:18.723Z,92.43
2022-09-24T00:59:18.756Z,92.02
2022-09-24T01:04:18.519Z,93.60
2022-09-24T01:09:18.465Z,94.67
2022-09-24T01:14:18.391Z,95.07
2022-09-24T01:19:18.347Z,95.64
2022-09-24T01:24:18.284Z,95.43
2022-09-24T01:29:18.195Z,95.57
2022-09-24T01:34:18.140Z,96.09
2022-09-24T01:39:18.145Z,95.94
2022-09-24T01:44:17.981Z,95.64
2022-09-24T01:49:17.952Z,94.92
2022-09-24T01:54:17.856Z,95.02
2022-09-24T01:59:17.800Z,94.87
2022-09-24T02:04:17.878Z,93.95
2022-09-24T02:09:17.650Z,93.74
2022-09-24T02:14:17.621Z,93.64
2022-09-24T02:19:17.509Z,93.74
2022-09-24T02:24:17.441Z,94.36
2022-09-24T02:29:17.376Z,94.15
2022-09-24T02:34:17.315Z,95.23
2022-09-24T02:39:17.248Z,95.47
2022-09-24T02:44:17.202Z,96.81
2022-09-24T02:49:17.117Z,97.16
2022-09-24T02:54:17.061Z,97.47
2022-09-24T02:59:16.976Z,97.06
2022-09-24T03:04:16.943Z,96.85
2022-09-24T03:09:17.044Z,96.65
2022-09-24T03:14:16.775Z,96.59
2022-09-24T03:19:16.780Z,95.62
2022-09-24T03:24:16.673Z,94.90
2022-09-24T03:29:16.616Z,94.80
2022-09-24T03:34:16.542Z,94.70
2022-09-24T03:39:16.494Z,95.21
2022-09-24T03:44:16.413Z,94.90
2022-09-24T03:49:16.343Z,94.43
2022-09-24T03:54:16.390Z,94.74
2022-09-24T03:59:16.250Z,94.64
2022-09-24T04:04:16.148Z,94.33
2022-09-24T04:09:16.149Z,95.30
2022-09-24T04:14:16.139Z,95.20
2022-09-24T04:19:15.965Z,95.50
2022-09-24T04:24:15.916Z,96.17
2022-09-24T04:29:15.864Z,96.78
2022-09-24T04:34:15.768Z,97.91
2022-09-24T04:39:15.700Z,98.53
2022-09-24T04:44:15.631Z,98.53
2022-09-24T04:49:15.572Z,99.51
2022-09-24T04:54:15.575Z,98.99
2022-09-24T04:59:15.448Z,99.09
2022-09-24T05:04:15.410Z,98.88
2022-09-24T05:09:15.429Z,98.88
2022-09-24T05:14:15.240Z,98.53
2022-09-24T05:19:15.217Z,97.77
2022-09-24T05:24:15.146Z,96.80
2022-09-24T05:29:15.064Z,95.56
2022-09-24T05:34:15.005Z,93.73
2022-09-24T05:39:15.205Z,92.14
2022-09-24T05:44:14.834Z,90.46
2022-09-24T05:49:14.792Z,87.82
2022-09-24T05:54:14.791Z,86.96
2022-09-24T05:59:14.659Z,84.01
2022-09-24T06:04:14.594Z,83.91
2022-09-24T06:09:14.526Z,82.68
2022-09-24T06:14:14.452Z,83.19
2022-09-24T06:19:14.423Z,82.54
2022-09-24T06:24:14.504Z,82.34
2022-09-24T06:29:14.362Z,81.99
2022-09-24T06:34:14.197Z,80.28
2022-09-24T06:39:14.126Z,80.14
2022-09-24T06:44:14.053Z,78.50
2022-09-24T06:49:14.015Z,75.70
2022-09-24T06:54:13.918Z,71.53
2022-09-24T06:59:14.034Z,70.96
2022-09-24T07:04:13.907Z,72.52
2022-09-24T07:09:13.776Z,68.19
2022-09-24T07:14:13.708Z,64.56
2022-09-24T07:19:13.662Z,62.65
2022-09-24T07:24:13.554Z,60.12
2022-09-24T07:29:13.481Z,57.81
2022-09-24T07:34:13.409Z,58.31
2022-09-24T07:39:13.341Z,59.82
2022-09-24T07:44:13.326Z,57.70
2022-09-24T07:49:13.396Z,54.17
2022-09-24T07:54:17.088Z,55.86
2022-09-24T07:59:13.180Z,55.05
2022-09-24T08:04:13.217Z,57.09
2022-09-24T08:09:13.014Z,53.67
2022-09-24T08:14:13.087Z,55.48
2022-09-24T08:19:12.872Z,57.32
2022-09-24T08:24:12.959Z,56.41
2022-09-24T08:29:12.922Z,56.69
2022-09-24T08:34:12.710Z,56.54
2022-09-24T08:39:12.637Z,55.05
2022-09-24T08:44:12.551Z,56.86
2022-09-24T08:49:12.437Z,58.17
2022-09-24T08:54:12.425Z,56.86
2022-09-24T08:59:12.413Z,56.92
2022-09-24T09:04:12.356Z,57.22
2022-09-24T09:09:12.288Z,58.98
2022-09-24T09:14:12.148Z,59.46
2022-09-24T09:19:12.105Z,57.32
2022-09-24T09:24:12.032Z,57.79
2022-09-24T09:29:11.957Z,56.41
2022-09-24T09:34:12.136Z,54.15
2022-09-24T09:39:11.917Z,54.47
2022-09-24T09:44:11.759Z,57.11
2022-09-24T09:49:11.650Z,56.08
2022-09-24T09:54:11.636Z,55.51
2022-09-24T09:59:11.533Z,55.15
2022-09-24T10:04:11.739Z,53.64
2022-09-24T10:09:11.384Z,53.37
2022-09-24T10:14:11.332Z,53.19
2022-09-24T10:19:11.244Z,51.57
2022-09-24T10:24:11.207Z,51.07
2022-09-24T10:29:11.107Z,49.72
2022-09-24T10:34:11.167Z,53.17
2022-09-24T10:39:11.011Z,53.80
2022-09-24T10:44:10.926Z,51.92
2022-09-24T10:49:10.898Z,54.62
2022-09-24T10:54:10.800Z,57.28
2022-09-24T10:59:10.760Z,52.00
2022-09-24T11:04:10.808Z,50.95
2022-09-24T11:09:10.638Z,47.86
2022-09-24T11:14:10.567Z,51.87
2022-09-24T11:19:10.450Z,50.39
2022-09-24T11:24:10.388Z,50.49
2022-09-24T11:29:10.329Z,52.01
2022-09-24T11:34:10.335Z,52.77
2022-09-24T11:39:10.197Z,50.04
2022-09-24T11:44:10.158Z,50.89
2022-09-24T11:49:10.087Z,49.14
2022-09-24T11:54:10.093Z,51.64
2022-09-24T11:59:10.011Z,52.77
2022-09-24T12:04:09.938Z,52.59
2022-09-24T12:09:09.821Z,52.51
2022-09-24T12:14:09.859Z,54.90
2022-09-24T12:19:09.678Z,54.22
2022-09-24T12:24:09.636Z,49.84
2022-09-24T12:29:09.575Z,52.12
2022-09-24T12:34:09.541Z,50.35
2022-09-24T12:39:09.413Z,47.88
2022-09-24T12:44:09.391Z,45.31
2022-09-24T12:49:09.337Z,49.40
2022-09-24T12:54:09.366Z,50.94
2022-09-24T12:59:09.174Z,46.07
2022-09-24T13:04:09.144Z,49.49
2022-09-24T13:09:09.050Z,50.56
2022-09-24T13:14:09.049Z,51.67
2022-09-24T13:19:08.898Z,50.64
2022-09-24T13:24:08.911Z,50.59
2022-09-24T13:29:08.801Z,50.46
2022-09-24T13:34:08.755Z,51.69
2022-09-24T13:39:08.687Z,51.59
2022-09-24T13:44:08.573Z,49.19
2022-09-24T13:49:08.536Z,48.74
2022-09-24T13:54:08.615Z,49.47
2022-09-24T13:59:08.521Z,47.35
2022-09-24T14:04:08.314Z,47.13
2022-09-24T14:09:08.354Z,50.69
2022-09-24T14:14:08.206Z,51.07
2022-09-24T14:19:08.259Z,49.24
2022-09-24T14:24:08.079Z,49.72
2022-09-24T14:29:08.050Z,48.24
2022-09-24T14:34:07.949Z,49.59
2022-09-24T14:39:07.924Z,50.59
2022-09-24T14:44:07.809Z,50.20
2022-09-24T14:49:07.787Z,49.19
2022-09-24T14:54:07.661Z,45.94
2022-09-24T14:59:07.779Z,46.06
2022-09-24T15:04:07.734Z,46.73
2022-09-24T15:09:07.577Z,52.77
2022-09-24T15:14:07.492Z,52.26
2022-09-24T15:19:07.353Z,54.30
2022-09-24T15:24:07.283Z,55.40
2022-09-24T15:29:07.303Z,54.97
2022-09-24T15:34:07.156Z,54.97
2022-09-24T15:39:07.074Z,55.60
2022-09-24T15:44:07.063Z,56.76
2022-09-24T15:49:06.970Z,56.99
2022-09-24T15:54:06.889Z,58.83
2022-09-24T15:59:06.835Z,59.63
2022-09-24T16:04:07.046Z,60.80
2022-09-24T16:09:06.783Z,61.83
2022-09-24T16:14:06.611Z,61.43
2022-09-24T16:19:06.539Z,61.20
2022-09-24T16:24:06.499Z,61.30
2022-09-24T16:29:06.504Z,62.66
2022-09-24T16:34:06.429Z,62.64
2022-09-24T16:39:06.292Z,64.11
2022-09-24T16:44:06.241Z,65.25
2022-09-24T16:49:06.234Z,65.15
2022-09-24T16:54:06.125Z,65.45
2022-09-24T16:59:06.085Z,65.45
2022-09-24T17:04:06.143Z,65.92
2022-09-24T17:09:06.167Z,64.18
2022-09-24T17:14:05.861Z,64.18
2022-09-24T17:19:05.782Z,66.05
2022-09-24T17:24:05.804Z,64.18
2022-09-24T17:29:05.705Z,66.29
2022-09-24T17:34:05.602Z,68.80
2022-09-24T17:39:05.710Z,69.75
2022-09-24T17:44:05.478Z,69.98
2022-09-24T17:49:05.430Z,71.84
2022-09-24T17:54:06.214Z,72.68
2022-09-24T17:59:05.310Z,73.83
2022-09-24T18:04:05.177Z,74.37
2022-09-24T18:09:05.287Z,76.57
2022-09-24T18:14:05.307Z,77.28
2022-09-24T18:19:05.121Z,77.72
2022-09-24T18:24:04.972Z,77.83
2022-09-24T18:29:04.881Z,78.67
2022-09-24T18:34:04.857Z,79.72
2022-09-24T18:39:04.907Z,79.72
2022-09-24T18:44:04.696Z,80.68
2022-09-24T18:49:04.617Z,81.84
2022-09-24T18:54:04.641Z,82.89
2022-09-24T18:59:09.168Z,84.01
2022-09-24T19:04:05.397Z,84.15
2022-09-24T19:09:04.426Z,84.86
2022-09-24T19:14:04.432Z,85.72
2022-09-24T19:19:04.276Z,86.43
2022-09-24T19:24:04.206Z,87.59
2022-09-24T19:29:04.068Z,88.71
2022-09-24T19:34:04.052Z,88.92
2022-09-24T19:39:03.932Z,89.22
2022-09-24T19:44:08.450Z,89.83
2022-09-24T19:49:04.822Z,90.48
2022-09-24T19:54:03.853Z,90.63
2022-09-24T19:59:03.695Z,90.73
2022-09-24T20:04:03.691Z,91.14
2022-09-24T20:09:03.530Z,90.63
2022-09-24T20:14:03.550Z,91.08
2022-09-24T20:19:03.399Z,90.67
2022-09-24T20:24:03.641Z,90.06
2022-09-24T20:29:03.260Z,90.06
2022-09-24T20:34:03.277Z,90.67
2022-09-24T20:39:03.241Z,90.36
2022-09-24T20:44:03.212Z,90.47
2022-09-24T20:49:03.000Z,90.92
2022-09-24T20:54:02.935Z,90.16
2022-09-24T20:59:02.873Z,89.90
2022-09-24T21:04:02.885Z,89.69
2022-09-24T21:09:02.723Z,89.90
2022-09-24T21:14:02.784Z,90.71
2022-09-24T21:19:02.595Z,91.02
2022-09-24T21:24:02.559Z,91.43
2022-09-24T21:29:02.667Z,92.24
2022-09-24T21:34:02.481Z,93.21
2022-09-24T21:39:02.363Z,93.62
2022-09-24T21:44:02.366Z,93.21
2022-09-24T21:49:02.228Z,93.25
2022-09-24T21:54:02.168Z,94.62
2022-09-24T21:59:02.097Z,94.62
2022-09-24T22:04:02.048Z,94.73
2022-09-24T22:09:02.098Z,95.38
2022-09-24T22:14:01.877Z,95.38
2022-09-24T22:19:01.860Z,95.89
2022-09-24T22:24:01.794Z,96.10
2022-09-24T22:29:01.685Z,97.06
2022-09-24T22:34:01.820Z,97.47
2022-09-24T22:39:01.667Z,97.67
2022-09-24T22:44:01.507Z,97.37
2022-09-24T22:49:01.483Z,98.08
2022-09-24T22:54:01.400Z,99.31
2022-09-24T22:59:01.345Z,99.11
2022-09-24T23:04:01.286Z,99.01
2022-09-24T23:09:01.225Z,99.15
2022-09-24T23:14:01.128Z,99.36
2022-09-24T23:19:01.076Z,99.46
2022-09-24T23:24:01.057Z,99.56
2022-09-24T23:29:01.014Z,99.82
2022-09-24T23:34:00.903Z,99.56
2022-09-24T23:39:01.047Z,99.26
2022-09-24T23:44:00.725Z,99.20
2022-09-24T23:49:00.646Z,99.41
2022-09-24T23:54:00.598Z,99.99
2022-09-24T23:59:00.519Z,99.96
